KHEY/HEY METAR and TAF weather

Enter ICAO airport designator
Station Type Date Time Source
KHEY METAR 2022/10/01 07:55 UTC NOAA

KHEY 010755Z AUTO 00000KT 10SM CLR 15/14 A2983 RMK AO2 SLP101 T01470141


Station Type Date Time Source
KHEY Decoded METAR 2022/10/01 07:55 UTC NOAA

Hanchey AHP / Ozark, AL, United States (KHEY) 31-21N 085-40W
Oct 01, 2022 - 03:55 AM EDT / 2022.10.01 0755 UTC
Wind: Calm:0
Visibility: 10 mile(s):0
Sky conditions: clear
Temperature: 58.5 F (14.7 C)
Dew Point: 57.4 F (14.1 C)
Relative Humidity: 96%
Pressure (altimeter): 29.83 in. Hg (1010 hPa)
ob: KHEY 010755Z AUTO 00000KT 10SM CLR 15/14 A2983 RMK AO2 SLP101 T01470141
cycle: 8

Station Type Date Time Source
KHEY TAF UTC NOAA

Error!

Example: see airport list